Time;durP1;ratioP1;P1;durP2;ratioP2;P2;SDS_P1;SDS_P2;PMS_P1;PMS_P2;Temp;Humidity;BMP_temperature;BMP_pressure;BME280_temperature;BME280_humidity;BME280_pressure;Samples;Min_cycle;Max_cycle;Signal;HPM_P1;HPM_P2
2023/01/08 00:01:22;;;;;;;18.10;3.07;;;10.00;99.90;;;;;;5032654;28;20202;-84
2023/01/08 00:03:49;;;;;;;10.83;3.17;;;10.00;99.90;;;;;;5031220;28;20284;-84
2023/01/08 00:06:18;;;;;;;12.13;2.60;;;10.00;99.90;;;;;;5012566;28;20281;-84
2023/01/08 00:08:46;;;;;;;15.07;3.10;;;10.00;99.90;;;;;;5027139;28;20301;-85
2023/01/08 00:11:14;;;;;;;9.70;2.70;;;10.00;99.90;;;;;;5031823;28;20276;-86
2023/01/08 00:13:41;;;;;;;13.17;3.23;;;9.90;99.90;;;;;;5022153;28;20513;-85
2023/01/08 00:16:10;;;;;;;15.93;3.13;;;9.90;99.90;;;;;;5011969;28;20946;-84
2023/01/08 00:18:37;;;;;;;14.77;3.57;;;9.90;99.90;;;;;;5017340;28;20225;-84
2023/01/08 00:21:05;;;;;;;20.03;4.83;;;9.90;99.90;;;;;;5019058;28;20203;-84
2023/01/08 00:23:32;;;;;;;13.57;3.10;;;9.90;99.90;;;;;;5031323;28;20779;-84
2023/01/08 00:26:02;;;;;;;16.07;3.97;;;9.90;99.90;;;;;;5032295;28;20865;-84
2023/01/08 00:28:29;;;;;;;20.33;3.60;;;9.80;99.90;;;;;;5012001;28;20229;-86
2023/01/08 00:30:56;;;;;;;14.63;3.30;;;9.80;99.90;;;;;;5012044;28;20639;-84
2023/01/08 00:33:24;;;;;;;16.07;3.17;;;9.70;99.90;;;;;;5017129;28;20839;-86
2023/01/08 00:35:51;;;;;;;19.37;4.17;;;9.70;99.90;;;;;;5031905;28;20194;-83
2023/01/08 00:38:17;;;;;;;22.43;3.53;;;9.70;99.90;;;;;;5031227;28;20286;-86
2023/01/08 00:40:44;;;;;;;12.73;3.10;;;9.70;99.90;;;;;;5030445;28;20286;-85
2023/01/08 00:43:13;;;;;;;22.73;4.00;;;9.60;99.90;;;;;;5031922;28;20298;-85
2023/01/08 00:45:40;;;;;;;18.77;3.67;;;9.60;99.90;;;;;;5045106;28;20792;-86
2023/01/08 00:48:07;;;;;;;18.03;3.27;;;9.60;99.90;;;;;;5051902;28;20218;-84
2023/01/08 00:50:34;;;;;;;19.77;4.00;;;9.60;99.90;;;;;;5050831;28;20363;-87
2023/01/08 00:53:01;;;;;;;16.23;3.20;;;9.60;99.90;;;;;;5051421;28;20209;-85
2023/01/08 00:55:27;;;;;;;17.27;4.67;;;9.60;99.90;;;;;;5045057;28;20261;-83
2023/01/08 00:57:56;;;;;;;18.27;3.80;;;9.50;99.90;;;;;;5031672;28;20907;-87
2023/01/08 01:00:25;;;;;;;14.60;3.50;;;9.50;99.90;;;;;;5033766;28;20289;-83
2023/01/08 01:02:52;;;;;;;12.90;3.50;;;9.50;99.90;;;;;;5029613;28;20214;-85
2023/01/08 01:05:19;;;;;;;11.77;3.00;;;9.50;99.90;;;;;;5026488;28;20532;-84
2023/01/08 01:07:46;;;;;;;15.37;3.10;;;9.40;99.90;;;;;;5030692;28;20199;-86
2023/01/08 01:10:15;;;;;;;23.43;4.30;;;9.40;99.90;;;;;;5030793;28;20268;-85
2023/01/08 01:12:43;;;;;;;23.50;4.03;;;9.40;99.90;;;;;;5036702;28;20296;-83
2023/01/08 01:15:12;;;;;;;9.93;2.67;;;9.30;99.90;;;;;;5050375;28;20289;-84
2023/01/08 01:17:43;;;;;;;12.97;3.40;;;9.30;99.90;;;;;;5035767;28;20480;-83
2023/01/08 01:20:13;;;;;;;16.70;3.07;;;9.30;99.90;;;;;;5030308;28;20218;-85
2023/01/08 01:22:40;;;;;;;12.80;3.43;;;9.30;99.90;;;;;;5030473;28;20666;-84
2023/01/08 01:25:09;;;;;;;14.60;3.37;;;9.30;99.90;;;;;;5031316;28;20210;-83
2023/01/08 01:27:35;;;;;;;11.70;3.23;;;9.30;99.90;;;;;;5030229;28;20191;-85
2023/01/08 01:30:03;;;;;;;17.73;3.77;;;9.30;99.90;;;;;;5030868;28;20313;-83
2023/01/08 01:32:30;;;;;;;14.17;3.33;;;9.30;99.90;;;;;;5030489;28;20203;-85
2023/01/08 01:34:58;;;;;;;15.87;4.60;;;9.30;99.90;;;;;;5030701;28;20226;-85
2023/01/08 01:37:26;;;;;;;10.60;3.07;;;9.30;99.90;;;;;;5031456;28;20296;-86
2023/01/08 01:39:55;;;;;;;11.47;2.90;;;9.30;99.90;;;;;;5030793;28;20199;-85
2023/01/08 01:42:40;;;;;;;12.73;2.40;;;9.20;99.90;;;;;;5030351;28;20195;-84
2023/01/08 01:45:16;;;;;;;12.43;2.73;;;9.20;99.90;;;;;;5033236;28;20215;-84
2023/01/08 01:47:46;;;;;;;12.77;3.13;;;9.10;99.90;;;;;;5050358;28;20197;-85
2023/01/08 01:50:20;;;;;;;11.33;3.80;;;9.10;99.90;;;;;;5050838;28;20220;-84
2023/01/08 01:52:52;;;;;;;14.07;2.93;;;9.10;99.90;;;;;;5032274;28;20273;-85
2023/01/08 01:55:19;;;;;;;13.33;3.77;;;9.00;99.90;;;;;;5030373;28;20268;-83
2023/01/08 01:57:53;;;;;;;14.13;3.10;;;9.00;99.90;;;;;;5030403;28;20220;-86
2023/01/08 02:00:22;;;;;;;12.17;2.30;;;9.10;99.90;;;;;;5029970;28;20658;-85
2023/01/08 02:02:49;;;;;;;8.73;3.40;;;9.10;99.90;;;;;;5049543;28;20214;-86
2023/01/08 02:05:18;;;;;;;12.83;2.53;;;9.10;99.90;;;;;;5050989;28;20198;-84
2023/01/08 02:07:52;;;;;;;10.33;2.37;;;9.10;99.90;;;;;;5045216;28;20249;-85
2023/01/08 02:10:29;;;;;;;10.70;2.50;;;9.00;99.90;;;;;;5030987;28;20540;-83
2023/01/08 02:13:03;;;;;;;11.70;2.63;;;9.00;99.90;;;;;;5030489;28;20198;-86
2023/01/08 02:15:36;;;;;;;12.87;2.73;;;8.90;99.90;;;;;;5030162;28;20288;-84
2023/01/08 02:18:08;;;;;;;12.80;2.87;;;8.90;99.90;;;;;;5030663;28;20197;-84
2023/01/08 02:20:40;;;;;;;9.63;2.90;;;8.90;99.90;;;;;;5030137;28;20274;-82
2023/01/08 02:23:26;;;;;;;10.77;2.50;;;8.80;99.90;;;;;;5030130;28;20219;-83
2023/01/08 02:26:12;;;;;;;7.87;2.70;;;8.80;99.90;;;;;;5045607;28;20511;-86
2023/01/08 02:28:45;;;;;;;10.10;2.30;;;8.80;99.90;;;;;;5044224;28;20234;-84
2023/01/08 02:31:12;;;;;;;10.47;2.83;;;8.70;99.90;;;;;;5034164;28;20231;-84
2023/01/08 02:33:40;;;;;;;11.47;3.03;;;8.70;99.90;;;;;;5048056;28;20320;-87
2023/01/08 02:36:29;;;;;;;9.40;2.10;;;8.70;99.90;;;;;;5049872;28;20222;-86
2023/01/08 02:39:07;;;;;;;9.33;2.13;;;8.70;99.90;;;;;;5053810;28;20248;-83
2023/01/08 02:41:43;;;;;;;10.87;3.00;;;8.70;99.90;;;;;;5042892;28;20202;-84
2023/01/08 02:44:17;;;;;;;11.63;3.60;;;8.70;99.90;;;;;;5033268;28;20218;-83
2023/01/08 02:46:44;;;;;;;8.07;2.37;;;8.60;99.90;;;;;;5033951;28;20212;-83
2023/01/08 02:49:14;;;;;;;8.07;2.07;;;8.60;99.90;;;;;;5033507;28;20285;-83
2023/01/08 02:51:46;;;;;;;7.03;2.50;;;8.60;99.90;;;;;;5033606;28;20230;-83
2023/01/08 02:54:17;;;;;;;11.50;2.47;;;8.60;99.90;;;;;;5035896;28;20199;-85
2023/01/08 02:56:49;;;;;;;9.90;2.50;;;8.60;99.90;;;;;;5053489;28;20202;-83
2023/01/08 02:59:19;;;;;;;7.17;2.47;;;8.60;99.90;;;;;;5053206;28;20289;-85
2023/01/08 03:01:47;;;;;;;9.17;2.37;;;8.60;99.90;;;;;;5048918;28;20220;-85
2023/01/08 03:04:16;;;;;;;10.30;2.60;;;8.70;99.90;;;;;;5048563;28;20206;-86
2023/01/08 03:06:44;;;;;;;10.30;2.50;;;8.70;99.90;;;;;;5047482;28;20281;-85
2023/01/08 03:09:12;;;;;;;6.27;2.40;;;8.70;99.90;;;;;;5047592;28;20260;-86
2023/01/08 03:11:45;;;;;;;10.27;3.00;;;8.70;99.90;;;;;;5050894;28;20240;-87
2023/01/08 03:14:20;;;;;;;8.17;2.23;;;8.60;99.90;;;;;;5053342;28;20538;-87
2023/01/08 03:16:49;;;;;;;5.13;2.30;;;8.60;99.90;;;;;;5052113;28;20197;-86
2023/01/08 03:19:21;;;;;;;6.10;2.40;;;8.60;99.90;;;;;;5051152;28;20229;-86
2023/01/08 03:21:50;;;;;;;4.87;2.40;;;8.60;99.90;;;;;;5034019;28;20203;-88
2023/01/08 03:24:20;;;;;;;9.03;2.90;;;8.60;99.90;;;;;;5034089;28;20207;-87
2023/01/08 03:26:50;;;;;;;10.20;2.97;;;8.50;99.90;;;;;;5056168;28;20213;-87
2023/01/08 03:29:23;;;;;;;5.40;2.63;;;8.60;99.90;;;;;;5074652;28;20281;-87
2023/01/08 03:31:51;;;;;;;8.37;3.03;;;8.60;99.90;;;;;;5043846;28;20231;-88
2023/01/08 03:34:20;;;;;;;7.33;2.70;;;8.60;99.90;;;;;;5053112;28;20237;-87
2023/01/08 03:36:50;;;;;;;7.83;3.33;;;8.60;99.90;;;;;;5050721;28;20306;-87
2023/01/08 03:39:21;;;;;;;6.70;2.87;;;8.60;99.90;;;;;;5033847;28;20207;-88
2023/01/08 03:41:49;;;;;;;10.47;3.03;;;8.60;99.90;;;;;;5032013;28;20191;-87
2023/01/08 03:44:17;;;;;;;7.37;2.90;;;8.60;99.90;;;;;;5033675;28;20625;-87
2023/01/08 03:46:49;;;;;;;6.07;2.93;;;8.60;99.90;;;;;;5034937;28;20448;-87
2023/01/08 03:49:17;;;;;;;5.70;2.70;;;8.60;99.90;;;;;;5050897;28;20653;-87
2023/01/08 03:51:45;;;;;;;7.77;3.10;;;8.50;99.90;;;;;;5031779;28;20264;-88
2023/01/08 03:54:15;;;;;;;8.80;2.80;;;8.50;99.90;;;;;;5028563;28;20292;-83
2023/01/08 03:56:42;;;;;;;12.93;3.50;;;8.50;99.90;;;;;;5032023;28;20262;-85
2023/01/08 03:59:10;;;;;;;8.57;2.93;;;8.40;99.90;;;;;;5032260;28;20214;-83
2023/01/08 04:01:39;;;;;;;6.30;2.53;;;8.40;99.90;;;;;;5031976;28;20209;-84
2023/01/08 04:04:06;;;;;;;8.27;2.93;;;8.40;99.90;;;;;;5031787;28;20209;-85
2023/01/08 04:06:33;;;;;;;9.00;2.40;;;8.40;99.90;;;;;;5027199;28;20238;-84
2023/01/08 04:09:00;;;;;;;10.63;2.33;;;8.40;99.90;;;;;;5043225;28;20291;-84
2023/01/08 04:11:28;;;;;;;6.43;2.20;;;8.40;99.90;;;;;;5052420;28;20283;-86
2023/01/08 04:13:55;;;;;;;9.77;2.60;;;8.40;99.90;;;;;;5052554;28;20193;-85
2023/01/08 04:16:22;;;;;;;8.00;2.80;;;8.30;99.90;;;;;;5032604;28;20203;-84
2023/01/08 04:18:50;;;;;;;9.07;2.17;;;8.30;99.90;;;;;;5033217;28;20474;-87
2023/01/08 04:21:17;;;;;;;7.37;2.30;;;8.30;99.90;;;;;;5045592;28;20608;-87
2023/01/08 04:23:44;;;;;;;12.77;2.80;;;8.30;99.90;;;;;;5051988;28;20260;-86
2023/01/08 04:26:11;;;;;;;7.67;1.83;;;8.30;99.90;;;;;;5053143;28;20281;-85
2023/01/08 04:28:39;;;;;;;8.20;2.20;;;8.30;99.90;;;;;;5051782;28;20201;-85
2023/01/08 04:31:06;;;;;;;10.57;2.67;;;8.30;99.90;;;;;;5051293;28;20884;-85
2023/01/08 04:33:34;;;;;;;8.97;2.47;;;8.20;99.90;;;;;;5043083;28;20245;-84
2023/01/08 04:36:02;;;;;;;6.53;1.97;;;8.20;99.90;;;;;;5028981;28;20222;-83
2023/01/08 04:38:29;;;;;;;8.33;1.90;;;8.20;99.90;;;;;;5038349;28;20255;-83
2023/01/08 04:40:58;;;;;;;11.43;2.53;;;8.20;99.90;;;;;;5038350;28;20202;-85
2023/01/08 04:43:25;;;;;;;11.80;2.90;;;8.10;99.90;;;;;;5034037;28;20202;-85
2023/01/08 04:45:52;;;;;;;12.17;2.40;;;8.10;99.90;;;;;;5043867;28;20807;-83
2023/01/08 04:48:19;;;;;;;17.27;2.60;;;8.10;99.90;;;;;;5055102;28;20224;-86
2023/01/08 04:50:46;;;;;;;12.17;2.70;;;8.10;99.90;;;;;;5047495;28;20290;-85
2023/01/08 04:53:14;;;;;;;9.43;3.63;;;8.10;99.90;;;;;;5032163;28;20209;-85
2023/01/08 04:55:41;;;;;;;17.13;2.17;;;8.20;99.90;;;;;;5031963;28;20194;-84
2023/01/08 04:58:08;;;;;;;9.97;3.03;;;8.20;99.90;;;;;;5032402;28;20194;-86
2023/01/08 05:00:35;;;;;;;13.77;3.20;;;8.10;99.90;;;;;;5052077;28;20289;-86
2023/01/08 05:03:02;;;;;;;11.70;2.87;;;8.20;99.90;;;;;;5052187;28;20194;-85
2023/01/08 05:05:29;;;;;;;9.67;2.07;;;8.20;99.90;;;;;;5051372;28;20285;-83
2023/01/08 05:07:56;;;;;;;14.43;2.40;;;8.20;99.90;;;;;;5051648;28;20622;-85
2023/01/08 05:10:24;;;;;;;12.17;2.37;;;8.20;99.90;;;;;;5031974;28;20221;-86
2023/01/08 05:12:51;;;;;;;11.63;2.50;;;8.20;99.90;;;;;;5031434;28;20604;-86
2023/01/08 05:15:18;;;;;;;10.03;2.03;;;8.20;99.90;;;;;;5039773;28;20233;-86
2023/01/08 05:17:45;;;;;;;13.97;3.13;;;8.20;99.90;;;;;;5051582;28;20190;-85
2023/01/08 05:20:12;;;;;;;10.27;2.00;;;8.10;99.90;;;;;;5051238;28;20625;-86
2023/01/08 05:22:39;;;;;;;12.53;3.37;;;8.10;99.90;;;;;;5040334;28;20289;-86
2023/01/08 05:25:06;;;;;;;10.30;2.17;;;8.00;99.90;;;;;;5031801;28;20323;-86
2023/01/08 05:27:35;;;;;;;11.40;2.13;;;8.10;99.90;;;;;;5031001;28;20211;-86
2023/01/08 05:30:02;;;;;;;11.43;2.50;;;8.10;99.90;;;;;;5023642;28;20247;-85
2023/01/08 05:32:29;;;;;;;9.30;2.40;;;8.10;99.90;;;;;;5031409;28;20314;-86
2023/01/08 05:34:56;;;;;;;10.30;2.33;;;8.00;99.90;;;;;;5031401;28;20253;-86
2023/01/08 05:37:22;;;;;;;10.00;2.30;;;8.10;99.90;;;;;;5026998;28;20217;-85
2023/01/08 05:39:49;;;;;;;9.47;1.80;;;8.10;99.90;;;;;;5028263;28;20229;-85
2023/01/08 05:42:16;;;;;;;11.97;2.37;;;8.00;99.90;;;;;;5031091;28;20285;-84
2023/01/08 05:44:45;;;;;;;9.70;2.37;;;8.00;99.90;;;;;;5030309;28;20198;-83
2023/01/08 05:47:11;;;;;;;13.67;2.67;;;8.10;99.90;;;;;;5029884;28;20222;-84
2023/01/08 05:49:38;;;;;;;12.27;2.73;;;8.10;99.90;;;;;;5030925;28;20211;-83
2023/01/08 05:52:05;;;;;;;8.67;2.30;;;8.20;99.90;;;;;;5030511;28;20258;-84
2023/01/08 05:54:32;;;;;;;10.70;2.33;;;8.10;99.90;;;;;;5030003;28;20875;-84
2023/01/08 05:56:59;;;;;;;8.10;2.60;;;8.10;99.90;;;;;;5029131;28;20553;-85
2023/01/08 05:59:26;;;;;;;8.87;2.20;;;8.20;99.90;;;;;;5030720;28;20206;-84
2023/01/08 06:01:54;;;;;;;10.27;3.00;;;8.10;99.90;;;;;;5030230;28;20285;-85
2023/01/08 06:04:21;;;;;;;9.90;2.23;;;8.10;99.90;;;;;;5046906;28;20292;-83
2023/01/08 06:06:48;;;;;;;13.20;2.50;;;8.10;99.90;;;;;;5057272;28;20277;-86
2023/01/08 06:09:15;;;;;;;10.03;2.77;;;8.10;99.90;;;;;;5057486;28;20221;-86
2023/01/08 06:11:42;;;;;;;10.13;2.40;;;8.10;99.90;;;;;;5040878;28;20230;-84
2023/01/08 06:14:09;;;;;;;14.03;2.47;;;8.10;99.90;;;;;;5038155;28;20210;-87
2023/01/08 06:16:36;;;;;;;9.00;2.00;;;8.10;99.90;;;;;;5037516;28;20209;-86
2023/01/08 06:19:04;;;;;;;8.67;2.10;;;8.10;99.90;;;;;;5030035;28;20224;-86
2023/01/08 06:21:31;;;;;;;11.53;2.40;;;8.10;99.90;;;;;;5037782;28;20637;-86
2023/01/08 06:23:58;;;;;;;8.27;2.20;;;8.10;99.90;;;;;;5037875;28;20293;-88
2023/01/08 06:26:25;;;;;;;7.90;2.00;;;8.10;99.90;;;;;;5037992;28;20530;-84
2023/01/08 06:28:51;;;;;;;7.73;2.40;;;8.10;99.90;;;;;;5037545;28;20217;-86
2023/01/08 06:31:18;;;;;;;7.23;2.07;;;8.10;99.90;;;;;;5037899;28;20281;-86
2023/01/08 06:33:45;;;;;;;9.30;2.00;;;8.10;99.90;;;;;;5037529;28;20234;-85
2023/01/08 06:36:13;;;;;;;12.87;2.90;;;8.10;99.90;;;;;;5037829;28;20214;-86
2023/01/08 06:38:40;;;;;;;9.13;1.80;;;8.00;99.90;;;;;;5037737;28;20285;-87
2023/01/08 06:41:10;;;;;;;10.57;2.23;;;8.00;99.90;;;;;;5037918;28;20293;-86
2023/01/08 06:43:37;;;;;;;8.53;2.47;;;8.10;99.90;;;;;;5037134;28;20651;-86
2023/01/08 06:46:05;;;;;;;5.87;2.10;;;8.10;99.90;;;;;;5067374;28;20502;-86
2023/01/08 06:48:31;;;;;;;9.47;1.90;;;8.00;99.90;;;;;;5077591;28;20205;-87
2023/01/08 06:51:00;;;;;;;10.17;2.27;;;8.00;99.90;;;;;;5076242;28;20207;-85
2023/01/08 06:53:29;;;;;;;8.67;2.00;;;8.00;99.90;;;;;;5037606;28;20313;-86
2023/01/08 06:55:57;;;;;;;9.93;2.20;;;8.00;99.90;;;;;;5046150;28;20201;-86
2023/01/08 06:58:24;;;;;;;9.37;1.97;;;7.90;99.90;;;;;;5057308;28;20781;-88
2023/01/08 07:00:51;;;;;;;14.97;2.70;;;7.90;99.90;;;;;;5057272;28;20201;-87
2023/01/08 07:03:19;;;;;;;7.77;1.93;;;7.90;99.90;;;;;;5057085;28;20190;-86
2023/01/08 07:05:46;;;;;;;6.70;1.70;;;7.90;99.90;;;;;;5052445;28;20582;-86
2023/01/08 07:08:16;;;;;;;7.13;2.27;;;7.80;99.90;;;;;;5037303;28;20245;-85
2023/01/08 07:10:45;;;;;;;17.33;3.57;;;7.90;99.90;;;;;;5032440;28;20200;-85
2023/01/08 07:13:12;;;;;;;9.70;2.60;;;7.80;99.90;;;;;;5034257;28;20279;-85
2023/01/08 07:15:40;;;;;;;5.30;2.20;;;7.90;99.90;;;;;;5034038;28;20599;-85
2023/01/08 07:18:08;;;;;;;10.83;2.77;;;7.90;99.90;;;;;;5051794;28;20202;-85
2023/01/08 07:20:39;;;;;;;6.70;2.13;;;7.90;99.90;;;;;;5044586;28;20294;-83
2023/01/08 07:23:07;;;;;;;14.30;2.93;;;7.80;99.90;;;;;;5046150;28;20233;-84
2023/01/08 07:25:34;;;;;;;11.57;2.50;;;7.80;99.90;;;;;;5041762;28;20225;-85
2023/01/08 07:28:02;;;;;;;11.90;4.13;;;7.80;99.90;;;;;;5024952;28;20556;-84
2023/01/08 07:30:29;;;;;;;10.43;2.67;;;7.70;99.90;;;;;;5033276;28;20213;-86
2023/01/08 07:32:59;;;;;;;10.32;2.80;;;7.70;99.90;;;;;;5035257;28;20570;-83
2023/01/08 07:35:26;;;;;;;12.40;2.83;;;7.70;99.90;;;;;;5038247;28;20214;-85
2023/01/08 07:37:53;;;;;;;7.03;2.63;;;7.70;99.90;;;;;;5046397;28;21030;-79
2023/01/08 07:40:20;;;;;;;7.43;1.73;;;7.70;99.90;;;;;;5042325;28;20210;-78
2023/01/08 07:42:46;;;;;;;9.50;2.27;;;7.70;99.90;;;;;;5047505;28;20497;-80
2023/01/08 07:45:15;;;;;;;10.77;2.23;;;7.70;99.90;;;;;;5047112;28;20233;-85
2023/01/08 07:47:42;;;;;;;10.97;2.63;;;7.60;99.90;;;;;;5051312;28;20209;-84
2023/01/08 07:50:09;;;;;;;10.87;3.03;;;7.60;99.90;;;;;;5049391;28;20217;-86
2023/01/08 07:52:36;;;;;;;8.57;2.37;;;7.60;99.90;;;;;;5038919;28;20240;-85
2023/01/08 07:55:03;;;;;;;8.17;2.40;;;7.60;99.90;;;;;;5048396;28;20217;-88
2023/01/08 07:57:30;;;;;;;11.40;3.27;;;7.60;99.90;;;;;;5048755;28;20233;-89
2023/01/08 07:59:57;;;;;;;14.53;3.40;;;7.50;99.90;;;;;;5046753;28;20228;-89
2023/01/08 08:02:25;;;;;;;10.23;2.77;;;7.50;99.90;;;;;;5037446;28;20633;-89
2023/01/08 08:04:52;;;;;;;11.47;2.37;;;7.50;99.90;;;;;;5042649;28;20206;-88
2023/01/08 08:07:19;;;;;;;9.37;3.40;;;7.50;99.90;;;;;;5051593;28;20296;-89
2023/01/08 08:09:46;;;;;;;11.87;3.03;;;7.60;99.90;;;;;;5049065;28;20358;-87
2023/01/08 08:12:14;;;;;;;9.50;2.13;;;7.60;99.90;;;;;;5049952;28;20228;-88
2023/01/08 08:14:44;;;;;;;5.10;2.40;;;7.50;99.90;;;;;;5051395;28;20209;-84
2023/01/08 08:17:10;;;;;;;10.43;2.83;;;7.50;99.90;;;;;;5051765;28;20285;-85
2023/01/08 08:19:40;;;;;;;10.77;2.90;;;7.40;99.90;;;;;;5051708;28;20648;-88
2023/01/08 08:22:07;;;;;;;10.63;2.97;;;7.40;99.90;;;;;;5045224;28;20212;-90
2023/01/08 08:24:34;;;;;;;8.70;2.40;;;7.50;99.90;;;;;;5050813;28;20311;-88
2023/01/08 08:27:01;;;;;;;6.87;2.90;;;7.40;99.90;;;;;;5032697;28;20262;-87
2023/01/08 08:29:28;;;;;;;7.43;2.73;;;7.50;99.90;;;;;;5033093;28;20199;-89
2023/01/08 08:31:55;;;;;;;9.57;2.57;;;7.50;99.90;;;;;;5032164;28;20210;-90
2023/01/08 08:34:21;;;;;;;7.50;2.70;;;7.60;99.90;;;;;;5031380;28;20234;-88
2023/01/08 08:36:50;;;;;;;12.07;2.40;;;7.60;99.90;;;;;;5030642;28;20880;-87
2023/01/08 08:39:17;;;;;;;7.43;3.07;;;7.60;99.90;;;;;;5027553;28;20233;-89
2023/01/08 08:41:44;;;;;;;11.23;2.87;;;7.60;99.90;;;;;;5027130;28;20198;-80
2023/01/08 08:44:10;;;;;;;12.70;2.83;;;7.60;99.90;;;;;;5028495;28;20289;-81
2023/01/08 08:46:37;;;;;;;12.13;3.13;;;7.60;99.90;;;;;;5027778;28;20285;-81
2023/01/08 08:49:04;;;;;;;9.53;2.23;;;7.60;99.90;;;;;;5028697;28;20289;-79
2023/01/08 08:51:31;;;;;;;11.80;2.47;;;7.60;99.90;;;;;;5026053;28;20207;-80
2023/01/08 08:53:59;;;;;;;15.63;2.73;;;7.60;99.90;;;;;;5031352;28;20226;-86
2023/01/08 08:56:28;;;;;;;7.90;2.00;;;7.70;99.90;;;;;;5033801;28;20202;-83
2023/01/08 08:58:56;;;;;;;10.63;3.07;;;7.70;99.90;;;;;;5029964;28;20202;-80
2023/01/08 09:01:23;;;;;;;14.53;3.90;;;7.60;99.90;;;;;;5026617;28;20298;-83
2023/01/08 09:03:50;;;;;;;10.27;2.07;;;7.70;99.90;;;;;;5026498;28;20550;-85
2023/01/08 09:06:17;;;;;;;15.13;3.23;;;7.60;99.90;;;;;;5037602;28;20210;-79
2023/01/08 09:08:44;;;;;;;10.63;2.30;;;7.60;99.90;;;;;;5046049;28;20903;-89
2023/01/08 09:11:12;;;;;;;13.13;3.40;;;7.70;99.90;;;;;;5051737;28;20199;-90
2023/01/08 09:13:39;;;;;;;12.37;3.13;;;7.70;99.90;;;;;;5051416;28;20226;-86
2023/01/08 09:16:07;;;;;;;14.00;2.83;;;7.70;99.90;;;;;;5050870;28;20515;-90
2023/01/08 09:18:34;;;;;;;9.70;2.53;;;7.70;99.90;;;;;;5051634;28;20593;-89
2023/01/08 09:21:05;;;;;;;14.13;2.50;;;7.70;99.90;;;;;;5051937;28;20859;-89
2023/01/08 09:23:32;;;;;;;10.17;2.07;;;7.70;99.90;;;;;;5051137;28;20601;-88
2023/01/08 09:26:00;;;;;;;8.67;2.40;;;7.70;99.90;;;;;;5034768;28;20214;-86
2023/01/08 09:28:32;;;;;;;11.47;2.97;;;7.70;99.90;;;;;;5031353;28;20199;-87
2023/01/08 09:31:01;;;;;;;8.30;2.47;;;7.70;99.90;;;;;;5031752;28;20202;-86
2023/01/08 09:33:28;;;;;;;7.20;2.33;;;7.80;99.90;;;;;;5031175;28;20245;-88
2023/01/08 09:35:55;;;;;;;10.37;2.50;;;7.80;99.90;;;;;;5031902;28;20206;-85
2023/01/08 09:38:22;;;;;;;12.70;2.47;;;7.80;99.90;;;;;;5031261;28;20206;-89
2023/01/08 09:40:55;;;;;;;7.90;2.30;;;7.90;99.90;;;;;;5043238;28;20216;-89
2023/01/08 09:43:24;;;;;;;8.67;2.30;;;7.90;99.90;;;;;;5052107;28;20271;-87
2023/01/08 09:45:58;;;;;;;10.27;2.00;;;7.90;99.90;;;;;;5051236;28;20666;-90
2023/01/08 09:48:28;;;;;;;10.53;2.33;;;7.90;99.90;;;;;;5048594;28;20659;-88
2023/01/08 09:50:56;;;;;;;8.67;1.93;;;7.90;99.90;;;;;;5044278;28;20740;-92
2023/01/08 09:53:23;;;;;;;9.17;2.73;;;7.90;99.90;;;;;;5047578;28;20218;-86
2023/01/08 09:55:56;;;;;;;9.43;2.47;;;8.00;99.90;;;;;;5041100;28;20299;-90
2023/01/08 09:58:30;;;;;;;12.43;2.63;;;8.00;99.90;;;;;;5043767;28;20194;-91
2023/01/08 10:00:59;;;;;;;14.97;3.90;;;8.00;99.90;;;;;;5041906;28;20218;-93
2023/01/08 10:03:30;;;;;;;9.47;2.17;;;8.10;99.90;;;;;;5045056;28;20273;-89
2023/01/08 10:05:57;;;;;;;10.17;2.10;;;8.10;99.90;;;;;;5047630;28;20214;-81
2023/01/08 10:08:24;;;;;;;11.93;2.80;;;8.10;99.90;;;;;;5039567;28;20233;-86
2023/01/08 10:10:50;;;;;;;8.97;2.20;;;8.10;99.90;;;;;;5045683;28;20280;-92
2023/01/08 10:13:17;;;;;;;4.67;2.00;;;8.10;99.90;;;;;;5049244;28;20225;-94
2023/01/08 10:15:44;;;;;;;11.17;2.90;;;8.20;99.90;;;;;;5042371;28;20272;-79
2023/01/08 10:18:15;;;;;;;13.17;2.83;;;8.20;99.90;;;;;;5029901;28;20215;-79
2023/01/08 10:20:42;;;;;;;9.60;2.07;;;8.20;99.90;;;;;;5049498;28;20213;-87
2023/01/08 10:23:11;;;;;;;11.33;2.50;;;8.30;99.90;;;;;;5050870;28;20232;-90
2023/01/08 10:25:52;;;;;;;8.83;2.53;;;8.30;99.90;;;;;;5050983;28;20308;-91
2023/01/08 10:28:21;;;;;;;9.67;2.13;;;8.40;99.90;;;;;;5051691;28;20202;-86
2023/01/08 10:30:49;;;;;;;6.50;1.97;;;8.40;99.90;;;;;;5055902;28;20289;-84
2023/01/08 10:33:23;;;;;;;10.43;2.13;;;8.40;99.90;;;;;;5036167;28;20282;-83
2023/01/08 10:35:56;;;;;;;13.17;2.50;;;8.50;99.90;;;;;;5007341;28;20205;-80
2023/01/08 10:38:29;;;;;;;11.83;2.70;;;8.50;99.90;;;;;;5008225;28;20208;-81
2023/01/08 10:40:57;;;;;;;9.20;2.63;;;8.50;99.90;;;;;;5026379;28;20326;-81
2023/01/08 10:43:29;;;;;;;12.73;2.87;;;8.50;99.90;;;;;;5021936;28;20287;-86
2023/01/08 10:45:58;;;;;;;12.10;2.73;;;8.60;99.90;;;;;;5024260;28;20199;-79
2023/01/08 10:48:32;;;;;;;9.33;2.33;;;8.60;99.90;;;;;;5025999;28;20199;-80
2023/01/08 10:51:07;;;;;;;8.17;2.37;;;8.60;99.90;;;;;;5015566;28;20659;-80
2023/01/08 10:53:34;;;;;;;8.43;2.30;;;8.70;99.90;;;;;;5013741;28;20535;-78
2023/01/08 10:56:03;;;;;;;12.03;2.60;;;8.70;99.90;;;;;;5023982;28;20209;-80
2023/01/08 10:58:40;;;;;;;10.10;2.77;;;8.70;99.90;;;;;;5028449;28;20325;-78
2023/01/08 11:01:11;;;;;;;8.57;2.10;;;8.70;99.90;;;;;;5029584;28;20230;-84
2023/01/08 11:03:41;;;;;;;9.97;2.43;;;8.80;99.90;;;;;;5032461;28;20672;-83
2023/01/08 11:06:13;;;;;;;11.93;2.37;;;8.90;99.90;;;;;;5026910;28;20217;-85
2023/01/08 11:08:49;;;;;;;12.73;3.00;;;8.90;99.90;;;;;;5033428;28;20256;-83
2023/01/08 11:11:16;;;;;;;9.07;2.97;;;9.00;99.90;;;;;;5033119;28;20290;-91
2023/01/08 11:13:59;;;;;;;8.70;2.73;;;9.10;99.90;;;;;;5026291;28;20234;-85
2023/01/08 11:16:35;;;;;;;11.00;2.27;;;9.10;99.90;;;;;;5032985;28;20241;-79
2023/01/08 11:19:04;;;;;;;9.87;2.80;;;9.10;99.90;;;;;;5033594;28;20288;-90
2023/01/08 11:21:34;;;;;;;6.50;2.17;;;9.10;99.90;;;;;;5027211;28;20730;-86
2023/01/08 11:24:13;;;;;;;10.23;2.77;;;9.10;99.90;;;;;;5031363;28;20778;-90
2023/01/08 11:26:43;;;;;;;6.30;2.30;;;9.20;99.90;;;;;;5029107;28;20206;-89
2023/01/08 11:29:15;;;;;;;13.80;3.37;;;9.20;99.90;;;;;;5043103;28;20302;-92
2023/01/08 11:31:49;;;;;;;10.30;2.47;;;9.20;99.90;;;;;;5033179;28;20221;-87
2023/01/08 11:34:24;;;;;;;9.83;3.13;;;9.30;99.90;;;;;;5037301;28;20321;-92
2023/01/08 11:36:59;;;;;;;9.73;2.13;;;9.30;99.90;;;;;;5040606;28;20788;-93
2023/01/08 11:39:26;;;;;;;4.83;2.03;;;9.30;99.90;;;;;;5059440;28;20593;-88
2023/01/08 11:42:17;;;;;;;8.10;2.60;;;9.40;99.90;;;;;;5038564;28;20225;-90
2023/01/08 11:44:56;;;;;;;12.70;2.43;;;9.40;99.90;;;;;;5028196;28;20209;-80
2023/01/08 11:47:39;;;;;;;6.97;2.07;;;9.40;99.90;;;;;;5038666;28;20210;-81
2023/01/08 11:50:19;;;;;;;10.27;2.83;;;9.50;99.90;;;;;;5039126;28;20284;-79
2023/01/08 11:53:04;;;;;;;8.67;1.87;;;9.50;99.90;;;;;;5043676;28;20951;-80
2023/01/08 11:55:44;;;;;;;9.07;2.63;;;9.40;99.90;;;;;;5045552;28;20290;-78
2023/01/08 11:58:22;;;;;;;7.07;2.67;;;9.50;99.90;;;;;;5046684;28;20212;-80
2023/01/08 12:01:03;;;;;;;9.10;2.67;;;9.50;99.90;;;;;;5039427;28;20260;-80
2023/01/08 12:03:34;;;;;;;7.07;2.33;;;9.50;99.90;;;;;;5046629;28;20190;-79
2023/01/08 12:06:21;;;;;;;7.77;2.50;;;9.50;99.90;;;;;;5046698;28;20673;-79
2023/01/08 12:08:59;;;;;;;7.70;2.40;;;9.60;99.90;;;;;;5045162;28;20856;-79
2023/01/08 12:11:29;;;;;;;6.60;2.50;;;9.60;99.90;;;;;;5046544;28;20182;-80
2023/01/08 12:14:11;;;;;;;8.87;2.37;;;9.60;99.90;;;;;;5045669;28;20229;-80
2023/01/08 12:17:03;;;;;;;8.53;2.10;;;9.60;99.90;;;;;;5046438;28;20277;-82
2023/01/08 12:19:46;;;;;;;8.27;2.03;;;9.60;99.90;;;;;;5026922;28;20629;-80
2023/01/08 12:22:31;;;;;;;10.83;3.80;;;9.70;99.90;;;;;;5026432;28;20199;-80
2023/01/08 12:25:21;;;;;;;9.23;2.63;;;9.70;99.90;;;;;;5027648;28;20341;-79
2023/01/08 12:27:58;;;;;;;7.73;2.07;;;9.70;99.90;;;;;;5027447;28;20199;-81
2023/01/08 12:30:35;;;;;;;7.53;2.43;;;9.70;99.90;;;;;;5028789;28;20253;-82
2023/01/08 12:33:07;;;;;;;6.37;2.30;;;9.70;99.90;;;;;;5027342;28;20533;-83
2023/01/08 12:35:38;;;;;;;6.90;2.80;;;9.70;99.90;;;;;;5043132;28;20302;-81
2023/01/08 12:38:13;;;;;;;7.73;1.70;;;9.70;99.90;;;;;;5047202;28;20204;-82
2023/01/08 12:40:42;;;;;;;8.00;2.30;;;9.70;99.90;;;;;;5057774;28;20203;-84
2023/01/08 12:43:17;;;;;;;8.00;2.33;;;9.70;99.90;;;;;;5069631;28;20207;-83
2023/01/08 12:45:46;;;;;;;9.57;3.10;;;9.70;99.90;;;;;;5046771;28;20216;-89
2023/01/08 12:48:17;;;;;;;3.57;1.43;;;9.80;99.90;;;;;;5055676;28;20228;-79
2023/01/08 12:50:52;;;;;;;6.67;2.70;;;9.80;99.90;;;;;;5042572;28;20884;-80
2023/01/08 12:53:29;;;;;;;6.47;1.80;;;9.80;99.90;;;;;;5026058;28;20361;-78
2023/01/08 12:56:05;;;;;;;8.27;1.90;;;9.90;99.90;;;;;;5025819;28;20208;-80
2023/01/08 12:58:41;;;;;;;10.10;2.30;;;9.90;99.90;;;;;;5026187;28;20234;-79
2023/01/08 13:01:22;;;;;;;5.77;2.00;;;9.90;99.90;;;;;;5026133;28;20276;-80
2023/01/08 13:03:49;;;;;;;5.77;1.93;;;9.90;99.90;;;;;;5025882;28;20288;-79